createdAt,value
2022-09-25T00:00:32.419Z,99.993896
2022-09-25T00:01:41.173Z,99.993896
2022-09-25T00:02:50.848Z,99.993896
2022-09-25T00:04:00.500Z,99.993896
2022-09-25T00:05:10.272Z,99.993896
2022-09-25T00:06:18.926Z,99.993896
2022-09-25T00:07:26.579Z,99.993896
2022-09-25T00:08:36.271Z,99.993896
2022-09-25T00:09:44.931Z,99.993896
2022-09-25T00:10:53.605Z,99.993896
2022-09-25T00:12:02.242Z,99.993896
2022-09-25T00:13:10.921Z,99.993896
2022-09-25T00:14:20.590Z,99.993896
2022-09-25T00:15:29.495Z,99.993896
2022-09-25T00:16:38.229Z,99.993896
2022-09-25T00:17:47.833Z,99.993896
2022-09-25T00:18:56.478Z,99.993896
2022-09-25T00:20:06.167Z,99.993896
2022-09-25T00:21:15.828Z,99.993896
2022-09-25T00:22:24.478Z,99.993896
2022-09-25T00:23:34.168Z,99.993896
2022-09-25T00:24:42.866Z,99.993896
2022-09-25T00:25:51.557Z,99.993896
2022-09-25T00:27:01.253Z,99.993896
2022-09-25T00:28:09.903Z,99.993896
2022-09-25T00:29:20.602Z,99.993896
2022-09-25T00:30:30.340Z,99.993896
2022-09-25T00:31:39.874Z,99.993896
2022-09-25T00:32:49.600Z,99.993896
2022-09-25T00:33:59.316Z,99.993896
2022-09-25T00:35:06.983Z,99.993896
2022-09-25T00:36:16.692Z,99.993896
2022-09-25T00:37:26.403Z,99.993896
2022-09-25T00:38:36.101Z,99.993896
2022-09-25T00:39:45.799Z,99.993896
2022-09-25T00:40:54.498Z,99.993896
2022-09-25T00:42:04.142Z,99.993896
2022-09-25T00:43:12.816Z,99.993896
2022-09-25T00:44:20.501Z,99.993896
2022-09-25T00:45:30.169Z,99.993896
2022-09-25T00:46:39.876Z,99.993896
2022-09-25T00:47:49.472Z,99.993896
2022-09-25T00:48:59.137Z,99.993896
2022-09-25T00:50:06.815Z,99.993896
2022-09-25T00:51:14.471Z,99.993896
2022-09-25T00:52:24.168Z,99.993896
2022-09-25T00:53:32.800Z,99.993896
2022-09-25T00:54:41.454Z,99.993896
2022-09-25T00:55:51.212Z,99.993896
2022-09-25T00:56:59.848Z,99.993896
2022-09-25T00:58:09.509Z,99.993896
2022-09-25T00:59:18.185Z,99.993896
2022-09-25T01:00:27.891Z,99.993896
2022-09-25T01:01:37.701Z,99.993896
2022-09-25T01:02:46.310Z,99.993896
2022-09-25T01:03:54.916Z,99.993896
2022-09-25T01:05:03.578Z,99.993896
2022-09-25T01:06:13.275Z,99.993896
2022-09-25T01:07:22.974Z,99.993896
2022-09-25T01:08:32.674Z,99.993896
2022-09-25T01:09:40.350Z,99.993896
2022-09-25T01:10:50.046Z,99.993896
2022-09-25T01:11:58.717Z,99.993896
2022-09-25T01:13:08.392Z,99.993896
2022-09-25T01:14:17.072Z,99.993896
2022-09-25T01:15:25.774Z,99.993896
2022-09-25T01:16:35.496Z,99.993896
2022-09-25T01:17:43.110Z,99.993896
2022-09-25T01:18:50.913Z,99.993896
2022-09-25T01:20:00.586Z,99.993896
2022-09-25T01:21:09.264Z,99.993896
2022-09-25T01:22:17.960Z,99.993896
2022-09-25T01:23:26.658Z,99.993896
2022-09-25T01:24:35.341Z,99.993896
2022-09-25T01:25:46.007Z,99.993896
2022-09-25T01:26:54.683Z,99.993896
2022-09-25T01:28:01.380Z,99.993896
2022-09-25T01:29:12.005Z,99.993896
2022-09-25T01:30:21.692Z,99.993896
2022-09-25T01:31:31.372Z,99.993896
2022-09-25T01:32:40.048Z,99.993896
2022-09-25T01:33:48.701Z,99.993896
2022-09-25T01:34:58.376Z,99.993896
2022-09-25T01:36:06.071Z,99.993896
2022-09-25T01:37:14.800Z,99.993896
2022-09-25T01:38:24.459Z,99.993896
2022-09-25T01:39:34.141Z,99.993896
2022-09-25T01:40:42.837Z,99.993896
2022-09-25T01:41:51.498Z,99.993896
2022-09-25T01:43:01.164Z,99.993896
2022-09-25T01:44:10.907Z,99.993896
2022-09-25T01:45:20.508Z,99.993896
2022-09-25T01:46:28.208Z,99.993896
2022-09-25T01:47:37.871Z,99.993896
2022-09-25T01:48:47.530Z,99.993896
2022-09-25T01:49:57.369Z,99.993896
2022-09-25T01:51:07.068Z,99.993896
2022-09-25T01:52:15.723Z,99.993896
2022-09-25T01:53:25.445Z,99.993896
2022-09-25T01:54:33.175Z,99.993896
2022-09-25T01:55:41.851Z,99.993896
2022-09-25T01:56:51.529Z,99.993896
2022-09-25T01:58:00.226Z,99.993896
2022-09-25T01:59:08.879Z,99.993896
2022-09-25T02:00:18.679Z,99.993896
2022-09-25T02:01:27.332Z,99.993896
2022-09-25T02:02:37.027Z,99.993896
2022-09-25T02:03:44.660Z,99.993896
2022-09-25T02:04:52.399Z,99.993896
2022-09-25T02:06:02.093Z,99.993896
2022-09-25T02:07:11.773Z,99.993896
2022-09-25T02:08:21.448Z,99.993896
2022-09-25T02:09:31.127Z,99.993896
2022-09-25T02:10:39.812Z,99.993896
2022-09-25T02:11:49.476Z,99.993896
2022-09-25T02:12:57.120Z,99.993896
2022-09-25T02:14:04.813Z,99.993896
2022-09-25T02:15:14.477Z,99.993896
2022-09-25T02:16:23.338Z,99.993896
2022-09-25T02:17:32.869Z,99.993896
2022-09-25T02:18:42.546Z,99.993896
2022-09-25T02:19:51.224Z,99.993896
2022-09-25T02:21:00.905Z,99.993896
2022-09-25T02:22:08.637Z,99.993896
2022-09-25T02:23:17.348Z,99.993896
2022-09-25T02:24:27.023Z,99.993896
2022-09-25T02:25:35.704Z,99.993896
2022-09-25T02:26:44.367Z,99.993896
2022-09-25T02:27:53.077Z,99.993896
2022-09-25T02:29:02.727Z,99.993896
2022-09-25T02:30:12.406Z,99.993896
2022-09-25T02:31:20.108Z,99.993896
2022-09-25T02:32:28.836Z,99.993896
2022-09-25T02:33:38.481Z,99.993896
2022-09-25T02:34:47.129Z,99.993896
2022-09-25T02:35:54.797Z,99.993896
2022-09-25T02:37:03.455Z,99.993896
2022-09-25T02:38:12.158Z,99.993896
2022-09-25T02:39:21.852Z,99.993896
2022-09-25T02:40:30.555Z,99.993896
2022-09-25T02:41:39.223Z,99.993896
2022-09-25T02:42:48.929Z,99.993896
2022-09-25T02:43:57.586Z,99.993896
2022-09-25T02:45:06.337Z,99.993896
2022-09-25T02:46:16.037Z,99.993896
2022-09-25T02:47:23.683Z,99.993896
2022-09-25T02:48:31.425Z,99.993896
2022-09-25T02:49:41.055Z,99.993896
2022-09-25T02:50:50.804Z,99.993896
2022-09-25T02:52:00.455Z,99.993896
2022-09-25T02:53:10.121Z,99.993896
2022-09-25T02:54:18.796Z,99.993896
2022-09-25T02:55:28.480Z,99.993896
2022-09-25T02:56:37.203Z,99.993896
2022-09-25T02:57:45.867Z,99.993896
2022-09-25T02:58:55.600Z,99.993896
2022-09-25T03:00:04.201Z,99.993896
2022-09-25T03:01:12.893Z,99.993896
2022-09-25T03:02:21.646Z,99.993896
2022-09-25T03:03:30.241Z,99.993896
2022-09-25T03:04:39.950Z,99.993896
2022-09-25T03:05:48.581Z,99.993896
2022-09-25T03:06:58.308Z,99.993896
2022-09-25T03:08:08.025Z,99.993896
2022-09-25T03:09:17.699Z,99.993896
2022-09-25T03:10:27.393Z,99.993896
2022-09-25T03:11:36.052Z,99.993896
2022-09-25T03:12:44.750Z,99.993896
2022-09-25T03:13:54.470Z,99.993896
2022-09-25T03:15:03.110Z,99.993896
2022-09-25T03:16:10.811Z,99.993896
2022-09-25T03:17:20.453Z,99.993896
2022-09-25T03:18:29.107Z,99.993896
2022-09-25T03:19:38.796Z,99.993896
2022-09-25T03:20:47.484Z,99.993896
2022-09-25T03:21:57.165Z,99.993896
2022-09-25T03:23:06.814Z,99.993896
2022-09-25T03:24:15.480Z,99.993896
2022-09-25T03:25:23.293Z,99.993896
2022-09-25T03:26:33.002Z,99.993896
2022-09-25T03:27:41.718Z,99.993896
2022-09-25T03:28:50.378Z,99.993896
2022-09-25T03:29:59.077Z,99.993896
2022-09-25T03:31:07.910Z,99.993896
2022-09-25T03:32:17.441Z,99.993896
2022-09-25T03:33:26.123Z,99.993896
2022-09-25T03:34:34.797Z,99.993896
2022-09-25T03:35:44.466Z,99.993896
2022-09-25T03:36:53.199Z,99.993896
2022-09-25T03:38:01.826Z,99.993896
2022-09-25T03:39:10.567Z,99.993896
2022-09-25T03:40:19.307Z,99.993896
2022-09-25T03:41:29.020Z,99.993896
2022-09-25T03:42:37.693Z,99.993896
2022-09-25T03:43:46.357Z,99.993896
2022-09-25T03:44:56.057Z,99.993896
2022-09-25T03:46:05.785Z,99.993896
2022-09-25T03:47:14.419Z,99.993896
2022-09-25T03:48:23.207Z,99.993896
2022-09-25T03:49:31.886Z,99.993896
2022-09-25T03:50:41.578Z,99.993896
2022-09-25T03:51:50.252Z,99.993896
2022-09-25T03:52:57.972Z,99.993896
2022-09-25T03:54:07.668Z,99.993896
2022-09-25T03:55:15.331Z,99.993896
2022-09-25T03:56:23.988Z,99.993896
2022-09-25T03:57:32.667Z,99.993896
2022-09-25T03:58:41.351Z,99.993896
2022-09-25T03:59:51.056Z,99.993896
2022-09-25T04:00:59.771Z,99.993896
2022-09-25T04:02:08.463Z,99.993896
2022-09-25T04:03:18.109Z,99.993896
2022-09-25T04:04:27.776Z,99.993896
2022-09-25T04:05:36.523Z,99.993896
2022-09-25T04:06:46.215Z,99.993896
2022-09-25T04:07:54.913Z,99.993896
2022-09-25T04:09:04.682Z,99.993896
2022-09-25T04:10:13.246Z,99.993896
2022-09-25T04:11:22.041Z,99.993896
2022-09-25T04:12:31.635Z,99.993896
2022-09-25T04:13:41.303Z,99.993896
2022-09-25T04:14:50.977Z,99.993896
2022-09-25T04:15:59.688Z,99.993896
2022-09-25T04:17:08.392Z,99.993896
2022-09-25T04:18:18.051Z,99.993896
2022-09-25T04:19:25.734Z,99.993896
2022-09-25T04:20:33.400Z,99.993896
2022-09-25T04:21:43.084Z,99.993896
2022-09-25T04:22:51.789Z,99.993896
2022-09-25T04:24:00.446Z,99.993896
2022-09-25T04:25:09.132Z,99.993896
2022-09-25T04:26:17.783Z,99.993896
2022-09-25T04:27:27.474Z,99.993896
2022-09-25T04:28:35.206Z,99.993896
2022-09-25T04:29:42.884Z,99.993896
2022-09-25T04:30:52.557Z,99.993896
2022-09-25T04:32:01.238Z,99.993896
2022-09-25T04:33:09.889Z,99.993896
2022-09-25T04:34:18.587Z,99.993896
2022-09-25T04:35:27.271Z,99.993896
2022-09-25T04:36:36.944Z,99.993896
2022-09-25T04:37:44.640Z,99.993896
2022-09-25T04:38:53.311Z,99.993896
2022-09-25T04:40:03.046Z,99.993896
2022-09-25T04:41:11.764Z,99.993896
2022-09-25T04:42:20.411Z,99.993896
2022-09-25T04:43:30.112Z,99.993896
2022-09-25T04:44:37.770Z,99.993896
2022-09-25T04:45:46.561Z,99.993896
2022-09-25T04:46:56.210Z,99.993896
2022-09-25T04:48:05.800Z,99.993896
2022-09-25T04:49:15.463Z,99.993896
2022-09-25T04:50:24.126Z,99.993896
2022-09-25T04:51:32.802Z,99.993896
2022-09-25T04:52:42.471Z,99.993896
2022-09-25T04:53:50.168Z,99.993896
2022-09-25T04:54:57.882Z,99.993896
2022-09-25T04:56:09.776Z,99.993896
2022-09-25T04:57:27.569Z,99.993896
2022-09-25T04:58:26.909Z,99.993896
2022-09-25T04:59:35.578Z,99.993896
2022-09-25T05:00:44.338Z,99.993896
2022-09-25T05:01:54.116Z,99.993896
2022-09-25T05:03:01.866Z,99.993896
2022-09-25T05:04:11.622Z,99.993896
2022-09-25T05:05:21.118Z,99.993896
2022-09-25T05:06:29.781Z,99.993896
2022-09-25T05:07:38.470Z,99.993896
2022-09-25T05:08:48.328Z,99.993896
2022-09-25T05:09:56.968Z,99.993896
2022-09-25T05:11:06.670Z,99.993896
2022-09-25T05:12:14.364Z,99.993896
2022-09-25T05:13:23.037Z,99.993896
2022-09-25T05:14:32.710Z,99.993896
2022-09-25T05:15:41.361Z,99.993896
2022-09-25T05:16:50.092Z,99.993896
2022-09-25T05:17:59.747Z,99.993896
2022-09-25T05:19:08.409Z,99.993896
2022-09-25T05:20:18.110Z,99.993896
2022-09-25T05:21:25.775Z,99.993896
2022-09-25T05:22:35.465Z,99.993896
2022-09-25T05:23:45.167Z,99.993896
2022-09-25T05:24:58.119Z,99.993896
2022-09-25T05:26:04.520Z,99.993896
2022-09-25T05:27:13.205Z,99.993896
2022-09-25T05:28:21.882Z,99.993896
2022-09-25T05:29:31.582Z,99.993896
2022-09-25T05:30:40.383Z,99.993896
2022-09-25T05:31:49.237Z,99.993896
2022-09-25T05:32:58.966Z,99.993896
2022-09-25T05:34:08.622Z,99.993896
2022-09-25T05:35:18.343Z,99.993896
2022-09-25T05:36:26.992Z,99.993896
2022-09-25T05:37:35.731Z,99.993896
2022-09-25T05:38:45.408Z,99.993896
2022-09-25T05:39:53.120Z,99.993896
2022-09-25T05:41:01.798Z,99.993896
2022-09-25T05:42:11.568Z,99.993896
2022-09-25T05:43:21.346Z,99.993896
2022-09-25T05:44:30.085Z,99.993896
2022-09-25T05:45:38.887Z,99.993896
2022-09-25T05:46:47.466Z,99.993896
2022-09-25T05:47:57.162Z,99.993896
2022-09-25T05:49:05.852Z,99.993896
2022-09-25T05:50:13.539Z,99.993896
2022-09-25T05:51:23.240Z,99.993896
2022-09-25T05:52:31.927Z,99.993896
2022-09-25T05:53:40.756Z,99.993896
2022-09-25T05:54:49.481Z,99.993896
2022-09-25T05:55:58.325Z,99.993896
2022-09-25T05:57:07.899Z,99.993896
2022-09-25T05:58:15.553Z,99.993896
2022-09-25T05:59:23.223Z,99.993896
2022-09-25T06:00:33.316Z,99.993896
2022-09-25T06:01:42.639Z,99.993896
2022-09-25T06:02:51.362Z,99.993896
2022-09-25T06:03:59.912Z,99.993896
2022-09-25T06:05:09.569Z,99.993896
2022-09-25T06:06:22.479Z,99.993896
2022-09-25T06:07:29.935Z,99.993896
2022-09-25T06:08:38.650Z,99.993896
2022-09-25T06:09:48.332Z,99.993896
2022-09-25T06:10:56.992Z,99.993896
2022-09-25T06:12:04.687Z,99.993896
2022-09-25T06:13:13.361Z,99.993896
2022-09-25T06:14:23.078Z,99.993896
2022-09-25T06:15:32.769Z,99.993896
2022-09-25T06:16:41.437Z,99.993896
2022-09-25T06:17:49.209Z,99.993896
2022-09-25T06:18:58.850Z,99.993896
2022-09-25T06:20:10.920Z,99.993896
2022-09-25T06:21:18.211Z,99.993896
2022-09-25T06:22:26.889Z,99.993896
2022-09-25T06:23:36.567Z,99.993896
2022-09-25T06:24:46.266Z,99.993896
2022-09-25T06:25:53.937Z,99.993896
2022-09-25T06:27:04.625Z,99.993896
2022-09-25T06:28:14.319Z,99.993896
2022-09-25T06:29:23.134Z,99.993896
2022-09-25T06:30:31.797Z,99.993896
2022-09-25T06:31:40.508Z,99.993896
2022-09-25T06:32:50.168Z,99.993896
2022-09-25T06:33:59.877Z,99.993896
2022-09-25T06:35:08.664Z,99.993896
2022-09-25T06:36:16.330Z,99.993896
2022-09-25T06:37:26.029Z,99.993896
2022-09-25T06:38:35.702Z,99.993896
2022-09-25T06:39:45.348Z,99.993896
2022-09-25T06:40:59.436Z,99.993896
2022-09-25T06:42:05.694Z,99.993896
2022-09-25T06:43:14.403Z,99.993896
2022-09-25T06:44:24.058Z,99.993896
2022-09-25T06:45:32.727Z,99.993896
2022-09-25T06:46:41.526Z,99.993896
2022-09-25T06:47:51.170Z,99.993896
2022-09-25T06:48:59.819Z,99.993896
2022-09-25T06:50:09.573Z,99.993896
2022-09-25T06:51:19.295Z,99.993896
2022-09-25T06:52:26.988Z,99.993896
2022-09-25T06:53:36.682Z,99.993896
2022-09-25T06:54:46.414Z,99.993896
2022-09-25T06:55:56.107Z,99.993896
2022-09-25T06:57:04.784Z,99.993896
2022-09-25T06:58:14.615Z,99.993896
2022-09-25T06:59:24.306Z,99.993896
2022-09-25T07:00:31.966Z,99.993896
2022-09-25T07:01:39.702Z,99.993896
2022-09-25T07:02:49.387Z,99.993896
2022-09-25T07:03:58.007Z,99.993896
2022-09-25T07:05:06.660Z,99.993896
2022-09-25T07:06:15.370Z,99.993896
2022-09-25T07:07:24.035Z,99.993896
2022-09-25T07:08:33.711Z,99.993896
2022-09-25T07:09:41.449Z,99.993896
2022-09-25T07:10:50.124Z,99.993896
2022-09-25T07:11:59.848Z,99.993896
2022-09-25T07:13:08.553Z,99.993896
2022-09-25T07:14:18.206Z,99.993896
2022-09-25T07:15:27.923Z,99.993896
2022-09-25T07:16:37.669Z,99.993896
2022-09-25T07:17:47.340Z,99.993896
2022-09-25T07:18:56.007Z,99.993896
2022-09-25T07:20:05.679Z,99.993896
2022-09-25T07:21:15.380Z,99.993896
2022-09-25T07:22:24.094Z,99.993896
2022-09-25T07:23:32.791Z,99.993896
2022-09-25T07:24:41.455Z,99.993896
2022-09-25T07:25:51.204Z,99.993896
2022-09-25T07:27:01.135Z,99.993896
2022-09-25T07:28:10.813Z,99.993896
2022-09-25T07:29:18.511Z,99.993896
2022-09-25T07:30:28.235Z,99.993896
2022-09-25T07:31:36.994Z,99.993896
2022-09-25T07:32:45.618Z,99.993896
2022-09-25T07:33:55.304Z,99.993896
2022-09-25T07:35:04.961Z,99.993896
2022-09-25T07:36:14.640Z,99.993896
2022-09-25T07:37:22.328Z,99.993896
2022-09-25T07:38:30.046Z,99.993896
2022-09-25T07:39:39.708Z,99.993896
2022-09-25T07:40:48.481Z,99.993896
2022-09-25T07:41:57.061Z,99.993896
2022-09-25T07:43:05.715Z,99.993896
2022-09-25T07:44:28.332Z,99.993896
2022-09-25T07:45:26.084Z,99.993896
2022-09-25T07:46:33.851Z,99.993896
2022-09-25T07:47:42.445Z,99.993896
2022-09-25T07:48:52.117Z,99.993896
2022-09-25T07:50:00.784Z,99.993896
2022-09-25T07:51:10.455Z,99.993896
2022-09-25T07:52:20.115Z,99.993896
2022-09-25T07:53:28.775Z,99.993896
2022-09-25T07:54:38.485Z,99.993896
2022-09-25T07:55:47.135Z,99.993896
2022-09-25T07:56:56.803Z,99.993896
2022-09-25T07:58:06.498Z,99.993896
2022-09-25T07:59:16.166Z,99.993896
2022-09-25T08:00:24.822Z,99.993896
2022-09-25T08:01:37.168Z,99.993896
2022-09-25T08:02:43.346Z,99.993896
2022-09-25T08:03:52.982Z,99.993896
2022-09-25T08:05:01.670Z,99.993896
2022-09-25T08:06:10.344Z,99.993896
2022-09-25T08:07:20.050Z,99.993896
2022-09-25T08:08:28.712Z,99.993896
2022-09-25T08:09:37.396Z,99.993896
2022-09-25T08:10:47.183Z,99.993896
2022-09-25T08:11:55.826Z,99.993896
2022-09-25T08:13:05.526Z,99.993896
2022-09-25T08:14:14.412Z,99.993896
2022-09-25T08:15:23.904Z,99.993896
2022-09-25T08:16:33.616Z,99.993896
2022-09-25T08:17:42.342Z,99.993896
2022-09-25T08:18:51.091Z,99.993896
2022-09-25T08:19:59.816Z,99.993896
2022-09-25T08:21:08.471Z,99.993896
2022-09-25T08:22:18.120Z,99.993896
2022-09-25T08:23:26.793Z,99.993896
2022-09-25T08:24:35.477Z,99.993896
2022-09-25T08:25:45.162Z,99.993896
2022-09-25T08:26:53.828Z,99.993896
2022-09-25T08:28:02.470Z,99.993896
2022-09-25T08:29:12.142Z,99.993896
2022-09-25T08:30:20.944Z,99.993896
2022-09-25T08:31:30.578Z,99.993896
2022-09-25T08:32:38.240Z,99.890137
2022-09-25T08:33:46.937Z,99.993896
2022-09-25T08:34:56.644Z,99.993896
2022-09-25T08:36:05.339Z,99.584961
2022-09-25T08:37:15.039Z,99.383545
2022-09-25T08:38:24.722Z,99.688721
2022-09-25T08:39:33.370Z,99.993896
2022-09-25T08:40:46.339Z,99.993896
2022-09-25T08:41:52.842Z,99.993896
2022-09-25T08:43:01.543Z,99.79248
2022-09-25T08:44:10.225Z,99.688721
2022-09-25T08:45:21.350Z,99.993896
2022-09-25T08:46:28.505Z,99.945068
2022-09-25T08:47:38.177Z,99.993896
2022-09-25T08:48:45.881Z,99.639893
2022-09-25T08:49:53.540Z,99.743652
2022-09-25T08:51:03.207Z,99.237061
2022-09-25T08:52:12.881Z,99.035645
2022-09-25T08:54:30.283Z,98.321533
2022-09-25T08:55:38.954Z,98.425293
2022-09-25T08:56:48.652Z,98.425293
2022-09-25T08:57:56.336Z,98.730469
2022-09-25T08:59:05.171Z,98.828125
2022-09-25T09:00:14.725Z,99.133301
2022-09-25T09:01:24.469Z,99.133301
2022-09-25T09:02:34.123Z,98.931885
2022-09-25T09:03:42.926Z,98.626709
2022-09-25T09:04:51.670Z,98.468018
2022-09-25T09:06:01.422Z,98.468018
2022-09-25T09:07:26.156Z,98.468018
2022-09-25T09:08:20.180Z,98.876953
2022-09-25T09:09:29.878Z,99.383545
2022-09-25T09:10:38.568Z,99.584961
2022-09-25T09:11:48.249Z,99.743652
2022-09-25T09:12:56.951Z,99.542236
2022-09-25T09:14:06.650Z,99.279785
2022-09-25T09:15:16.425Z,99.237061
2022-09-25T09:16:25.115Z,99.133301
2022-09-25T09:17:35.398Z,99.334717
2022-09-25T09:18:49.318Z,99.334717
2022-09-25T09:20:03.812Z,99.438477
2022-09-25T09:21:14.282Z,98.773193
2022-09-25T09:22:24.044Z,98.675537
2022-09-25T09:23:33.835Z,98.468018
2022-09-25T09:24:43.508Z,98.773193
2022-09-25T09:25:51.204Z,98.931885
2022-09-25T09:26:59.880Z,99.035645
2022-09-25T09:28:09.563Z,99.438477
2022-09-25T09:29:19.219Z,99.334717
2022-09-25T09:30:27.933Z,99.237061
2022-09-25T09:31:37.589Z,99.334717
2022-09-25T09:32:46.237Z,99.237061
2022-09-25T09:33:55.931Z,99.035645
2022-09-25T09:35:06.617Z,99.133301
2022-09-25T09:36:14.284Z,99.133301
2022-09-25T09:37:23.948Z,98.773193
2022-09-25T09:38:32.607Z,98.675537
2022-09-25T09:39:42.293Z,98.773193
2022-09-25T09:40:50.974Z,98.931885
2022-09-25T09:42:00.615Z,98.931885
2022-09-25T09:43:10.418Z,98.931885
2022-09-25T09:44:18.091Z,98.425293
2022-09-25T09:45:26.889Z,98.522949
2022-09-25T09:46:36.708Z,97.814941
2022-09-25T09:47:45.272Z,97.613525
2022-09-25T09:48:53.978Z,97.509766
2022-09-25T09:50:03.614Z,98.223877
2022-09-25T09:51:12.314Z,98.016357
2022-09-25T09:52:22.111Z,97.613525
2022-09-25T09:53:29.806Z,98.016357
2022-09-25T09:54:38.517Z,97.814941
2022-09-25T09:55:48.215Z,97.106934
2022-09-25T09:56:56.904Z,96.801758
2022-09-25T09:58:05.594Z,96.801758
2022-09-25T09:59:15.405Z,97.30835
2022-09-25T10:00:24.094Z,97.668457
2022-09-25T10:01:41.153Z,98.071289
2022-09-25T10:02:44.643Z,98.278809
2022-09-25T10:03:52.172Z,97.619629
2022-09-25T10:05:00.886Z,97.619629
2022-09-25T10:06:09.544Z,97.015381
2022-09-25T10:07:18.212Z,96.606445
2022-09-25T10:08:27.036Z,97.015381
2022-09-25T10:09:36.696Z,96.911621
2022-09-25T10:10:46.388Z,96.508789
2022-09-25T10:11:55.062Z,96.966553
2022-09-25T10:13:06.357Z,96.563721
2022-09-25T10:14:13.544Z,96.313477
2022-09-25T10:15:22.176Z,97.583008
2022-09-25T10:16:30.852Z,97.436523
2022-09-25T10:17:40.525Z,95.367432
2022-09-25T10:18:49.203Z,93.811035
2022-09-25T10:19:58.894Z,93.255615
2022-09-25T10:21:08.569Z,92.504883
2022-09-25T10:22:18.256Z,91.253662
2022-09-25T10:23:27.947Z,88.122559
2022-09-25T10:24:36.650Z,89.233398
2022-09-25T10:25:46.408Z,88.482666
2022-09-25T10:26:56.064Z,86.328125
2022-09-25T10:28:05.782Z,86.083984
2022-09-25T10:29:15.434Z,87.756348
2022-09-25T10:30:23.093Z,86.260986
2022-09-25T10:31:30.818Z,85.015869
2022-09-25T10:32:40.454Z,82.702637
2022-09-25T10:33:49.111Z,81.494141
2022-09-25T10:34:57.820Z,82.299805
2022-09-25T10:36:07.511Z,82.659912
2022-09-25T10:37:16.210Z,80.987549
2022-09-25T10:38:23.868Z,80.426025
2022-09-25T10:39:46.686Z,81.433105
2022-09-25T10:40:44.236Z,82.739258
2022-09-25T10:41:52.957Z,82.843018
2022-09-25T10:43:01.672Z,83.044434
2022-09-25T10:44:11.411Z,81.835938
2022-09-25T10:45:21.019Z,82.23877
2022-09-25T10:46:28.767Z,82.23877
2022-09-25T10:47:38.374Z,81.634521
2022-09-25T10:48:48.230Z,83.14209
2022-09-25T10:49:56.888Z,83.38623
2022-09-25T10:51:05.588Z,82.476807
2022-09-25T10:52:15.239Z,81.90918
2022-09-25T10:53:23.915Z,81.707764
2022-09-25T10:54:33.784Z,80.603027
2022-09-25T10:55:43.464Z,81.707764
2022-09-25T10:56:52.179Z,81.347656
2022-09-25T10:58:01.906Z,81.951904
2022-09-25T10:59:10.609Z,83.056641
2022-09-25T11:00:20.307Z,83.563232
2022-09-25T11:01:29.144Z,84.069824
2022-09-25T11:02:37.780Z,82.513428
2022-09-25T11:03:47.555Z,81.304932
2022-09-25T11:04:56.239Z,80.297852
2022-09-25T11:06:04.048Z,80.200195
2022-09-25T11:07:13.741Z,80.499268
2022-09-25T11:08:23.509Z,80.438232
2022-09-25T11:09:32.188Z,80.780029
2022-09-25T11:10:40.866Z,83.502197
2022-09-25T11:11:50.700Z,83.197021
2022-09-25T11:13:00.384Z,82.391357
2022-09-25T11:14:10.047Z,82.495117
2022-09-25T11:15:18.705Z,82.855225
2022-09-25T11:16:28.446Z,81.445312
2022-09-25T11:17:38.106Z,80.981445
2022-09-25T11:18:46.793Z,80.877686
2022-09-25T11:19:56.515Z,80.175781
2022-09-25T11:21:06.175Z,80.877686
2022-09-25T11:22:15.853Z,80.175781
2022-09-25T11:23:24.584Z,80.413818
2022-09-25T11:24:33.280Z,81.92749
2022-09-25T11:25:42.981Z,80.81665
2022-09-25T11:26:52.673Z,82.391357
2022-09-25T11:28:02.364Z,81.585693
2022-09-25T11:29:11.343Z,81.445312
2022-09-25T11:30:20.781Z,81.103516
2022-09-25T11:31:30.480Z,81.976318
2022-09-25T11:32:39.167Z,80.224609
2022-09-25T11:33:48.835Z,79.681396
2022-09-25T11:34:58.565Z,78.375244
2022-09-25T11:36:08.218Z,79.040527
2022-09-25T11:37:16.912Z,77.496338
2022-09-25T11:38:26.578Z,77.593994
2022-09-25T11:39:36.279Z,77.355957
2022-09-25T11:40:45.979Z,76.483154
2022-09-25T11:41:55.653Z,75.708008
2022-09-25T11:43:05.361Z,74.304199
2022-09-25T11:44:15.072Z,74.371338
2022-09-25T11:45:24.738Z,73.602295
2022-09-25T11:46:34.505Z,74.603271
2022-09-25T11:47:43.207Z,73.034668
2022-09-25T11:48:51.870Z,72.735596
2022-09-25T11:50:01.554Z,73.370361
2022-09-25T11:51:11.211Z,77.319336
2022-09-25T11:52:19.947Z,75.817871
2022-09-25T11:53:29.635Z,75.415039
2022-09-25T11:54:38.424Z,75.146484
2022-09-25T11:55:46.995Z,76.153564
2022-09-25T11:56:56.648Z,76.855469
2022-09-25T11:58:06.365Z,77.661133
2022-09-25T11:59:16.045Z,76.654053
2022-09-25T12:00:24.764Z,77.960205
2022-09-25T12:01:33.489Z,78.063965
2022-09-25T12:02:43.206Z,77.557373
2022-09-25T12:03:51.861Z,78.302002
2022-09-25T12:05:01.534Z,77.697754
2022-09-25T12:06:10.205Z,78.100586
2022-09-25T12:07:18.879Z,79.504395
2022-09-25T12:08:28.546Z,79.80957
2022-09-25T12:09:36.290Z,79.705811
2022-09-25T12:10:45.002Z,79.608154
2022-09-25T12:11:54.764Z,79.80957
2022-09-25T12:13:03.413Z,78.637695
2022-09-25T12:14:13.191Z,80.249023
2022-09-25T12:15:21.810Z,80.749512
2022-09-25T12:16:31.682Z,78.979492
2022-09-25T12:17:41.376Z,80.584717
2022-09-25T12:18:49.125Z,80.926514
2022-09-25T12:19:57.857Z,81.329346
2022-09-25T12:21:07.599Z,82.13501
2022-09-25T12:22:17.344Z,81.469727
2022-09-25T12:23:26.010Z,81.37207
2022-09-25T12:24:35.727Z,82.312012
2022-09-25T12:25:44.494Z,81.347656
2022-09-25T12:26:54.249Z,81.585693
2022-09-25T12:28:02.083Z,82.696533
2022-09-25T12:29:10.782Z,82.531738
2022-09-25T12:30:20.482Z,83.642578
2022-09-25T12:31:30.237Z,83.276367
2022-09-25T12:32:38.950Z,83.782959
2022-09-25T12:33:47.619Z,84.088135
2022-09-25T12:34:55.310Z,84.326172
2022-09-25T12:36:04.122Z,85.540771
2022-09-25T12:37:13.798Z,85.03418
2022-09-25T12:38:23.505Z,85.742188
2022-09-25T12:39:32.293Z,85.339355
2022-09-25T12:40:41.116Z,85.839844
2022-09-25T12:41:50.720Z,86.04126
2022-09-25T12:43:00.423Z,86.688232
2022-09-25T12:44:10.189Z,87.5
2022-09-25T12:45:18.849Z,86.590576
2022-09-25T12:46:28.546Z,86.791992
2022-09-25T12:47:37.222Z,87.701416
2022-09-25T12:48:44.910Z,87.5
2022-09-25T12:49:54.649Z,87.194824
2022-09-25T12:51:05.524Z,86.450195
2022-09-25T12:52:13.988Z,86.486816
2022-09-25T12:53:22.673Z,87.054443
2022-09-25T12:54:31.355Z,86.950684
2022-09-25T12:55:40.072Z,86.688232
2022-09-25T12:56:49.759Z,86.486816
2022-09-25T12:57:59.445Z,87.194824
2022-09-25T12:59:08.174Z,87.298584
2022-09-25T13:00:16.838Z,87.597656
2022-09-25T13:01:26.639Z,87.133789
2022-09-25T13:02:36.260Z,86.022949
2022-09-25T13:03:44.946Z,87.542725
2022-09-25T13:04:54.650Z,87.341309
2022-09-25T13:06:04.328Z,87.078857
2022-09-25T13:07:14.062Z,86.572266
2022-09-25T13:08:22.760Z,86.065674
2022-09-25T13:09:32.418Z,86.37085
2022-09-25T13:10:42.128Z,87.481689